首页
METAR-TAF:

METAR-TAF

机场 :

Entrammes

拉瓦勒, 法国

纬度: 48-01-56N, 经度: 000-44-34W, 海拔: 101米

当前天气观测

该预报发布于41分钟前的22:00 UTC
风速17节,风向北转东北
温度 3°C
湿度 52%
气压 1031 hPa
能见度10公里或以上
1500米以下无云,无积雨云

METAR: LFOV 292200Z AUTO 02017KT CAVOK 03/M06 Q1031

时间: 00:41 (22:41 UTC)


TAF: 丢失

超过4000个机场的气象观测和天气预报(METAR&TAF报告)。

可查询的气象台以黄色和红色小点在地图上表示。

将鼠标移到小点上方,可查看气象台名称。

然后点击查看天气观测和预报。

如需切换地图:点击带黑十字的绿色按钮放大地图;点击带横线的绿色按钮缩小地图;或者点击绿色箭头查看邻近地区的地图。


METAR-TAF: